LTBS Airport Information

Runway Information
Runway 01 Length 9842 ft width 148 ft
Elevation 10 ft Threshold 0 ft Heading 15
Runway 19 Length 9842 ft Width 148 ft
Elevation 20 ft Threshold 0 ft Heading 195
Airport Frequencies
Type APP Name APP Frequency 119.225 MHZ
Type ATIS Name ATIS Frequency 127.35 MHZ
Type GND Name GND Frequency 121.9 MHZ
Type TWR Name TWR Frequency 118.5 MHZ
Airport Navaids
Type TACAN Name Dalaman Frequency 115300 KHZ
Type VOR-DME Name Dalaman Frequency 114700 KHZ
Type NDB Name Dalaman Frequency 346 KHZ
Airport Weather Information & NOTAM
ADDS - METARS form results

(0939 UTC 30 May 2020)
Data provider http://aviationweather.gov/metar/data/
 
METAR text: LTBS 300920Z 23011KT 9999 FEW030 22/14 Q1016 NOSIG RMK RWY19 21012KT
Conditions at: LTBS (DALAMAN (COMMUNE, TR) observed 0920 UTC 30 May 2020
Temperature: 22.0°C (72°F)
Dewpoint: 14.0°C (57°F) [RH = 60%]
Pressure (altimeter): 30.00 inches Hg (1016.0 mb)
Winds: from the SW (230 degrees) at 13 MPH (11 knots; 5.7 m/s)
Visibility: 6 or more miles (10+ km)
Ceiling: at least 12,000 feet AGL
Clouds: few clouds at 3000 feet AGL
Weather: no significant weather observed at this time

METAR text: LTBS 300850Z 23012KT 9999 FEW030 22/14 Q1016 NOSIG RMK RWY19 21012KT
Conditions at: LTBS (DALAMAN (COMMUNE, TR) observed 0850 UTC 30 May 2020
Temperature: 22.0°C (72°F)
Dewpoint: 14.0°C (57°F) [RH = 60%]
Pressure (altimeter): 30.00 inches Hg (1016.0 mb)
Winds: from the SW (230 degrees) at 14 MPH (12 knots; 6.2 m/s)
Visibility: 6 or more miles (10+ km)
Ceiling: at least 12,000 feet AGL
Clouds: few clouds at 3000 feet AGL
Weather: no significant weather observed at this time

Forecast for: LTBS (DALAMAN (COMMUNE, TR)
Text: TAF LTBS 300440Z 3006/3106 VRB02KT CAVOK
Forecast period: 0600 to 0700 UTC 30 May 2020
Forecast type: FROM: standard forecast or significant change
Winds: variable direction winds at 2 MPH (2 knots; 1.0 m/s)
Visibility: 6 or more miles 10+ km)
Ceiling: unknown
Clouds: missing
Weather: NSW  (no significant weather)
Text: BECMG 3007/3009 21012KT FEW030
Forecast period: 0700 to 1600 UTC 30 May 2020
Forecast type: BECOMING: Conditions expected to become as follows by 0900 UTC 30 May 2020
Winds: from the SSW (210 degrees) at 14 MPH (12 knots; 6.2 m/s)
Visibility: 6 or more miles 10+ km)
Ceiling: at least 12,000 feet AGL
Clouds: few clouds at 3000 feet AGL
Weather: NSW  (no significant weather)
Text: BECMG 3016/3018 VRB02KT CAVOK
Forecast period: 1600 UTC 30 May 2020 to 0600 UTC 31 May 2020
Forecast type: BECOMING: Conditions expected to become as follows by 1800 UTC 30 May 2020
Winds: variable direction winds at 2 MPH (2 knots; 1.0 m/s)
Visibility: 6 or more miles 10+ km)
Ceiling: unknown
Clouds: missing
Weather: NSW  (no significant weather)